sensor_id;sensor_type;location;lat;lon;timestamp;P1;durP1;ratioP1;P2;durP2;ratioP2
28774;SDS011;15926;51.348;6.596;2023-07-13T04:04:54;5.97;;;1.80;;
28774;SDS011;15926;51.348;6.596;2023-07-13T04:07:20;4.00;;;1.40;;
28774;SDS011;15926;51.348;6.596;2023-07-13T04:09:46;5.80;;;1.50;;
28774;SDS011;15926;51.348;6.596;2023-07-13T04:12:12;7.05;;;1.88;;
28774;SDS011;15926;51.348;6.596;2023-07-13T04:14:39;6.63;;;1.52;;
28774;SDS011;15926;51.348;6.596;2023-07-13T04:17:05;6.60;;;1.33;;
28774;SDS011;15926;51.348;6.596;2023-07-13T04:19:31;3.25;;;1.50;;
28774;SDS011;15926;51.348;6.596;2023-07-13T04:21:57;3.38;;;1.58;;
28774;SDS011;15926;51.348;6.596;2023-07-13T04:24:23;8.52;;;1.40;;
28774;SDS011;15926;51.348;6.596;2023-07-13T04:26:49;3.70;;;1.15;;
28774;SDS011;15926;51.348;6.596;2023-07-13T04:29:15;5.85;;;1.55;;
28774;SDS011;15926;51.348;6.596;2023-07-13T04:31:41;5.75;;;1.35;;
28774;SDS011;15926;51.348;6.596;2023-07-13T04:34:07;4.03;;;1.30;;
28774;SDS011;15926;51.348;6.596;2023-07-13T04:36:33;9.18;;;1.77;;
28774;SDS011;15926;51.348;6.596;2023-07-13T04:39:02;9.38;;;1.67;;
28774;SDS011;15926;51.348;6.596;2023-07-13T04:41:28;4.72;;;1.60;;
28774;SDS011;15926;51.348;6.596;2023-07-13T04:43:54;7.60;;;1.70;;
28774;SDS011;15926;51.348;6.596;2023-07-13T04:46:21;8.70;;;1.73;;
28774;SDS011;15926;51.348;6.596;2023-07-13T04:48:48;6.15;;;1.92;;
28774;SDS011;15926;51.348;6.596;2023-07-13T04:51:16;4.05;;;1.45;;
28774;SDS011;15926;51.348;6.596;2023-07-13T04:53:41;4.03;;;1.63;;
28774;SDS011;15926;51.348;6.596;2023-07-13T04:56:08;7.25;;;1.60;;
28774;SDS011;15926;51.348;6.596;2023-07-13T04:58:34;9.23;;;1.70;;
28774;SDS011;15926;51.348;6.596;2023-07-13T05:01:04;5.63;;;1.42;;
28774;SDS011;15926;51.348;6.596;2023-07-13T05:03:30;4.28;;;1.73;;
28774;SDS011;15926;51.348;6.596;2023-07-13T05:06:00;3.30;;;1.58;;
28774;SDS011;15926;51.348;6.596;2023-07-13T05:08:26;2.97;;;1.55;;
28774;SDS011;15926;51.348;6.596;2023-07-13T05:10:53;9.15;;;2.67;;
28774;SDS011;15926;51.348;6.596;2023-07-13T05:13:19;4.50;;;1.90;;
28774;SDS011;15926;51.348;6.596;2023-07-13T05:15:45;8.13;;;2.05;;
28774;SDS011;15926;51.348;6.596;2023-07-13T05:18:11;5.00;;;1.98;;
28774;SDS011;15926;51.348;6.596;2023-07-13T05:20:37;5.55;;;1.50;;
28774;SDS011;15926;51.348;6.596;2023-07-13T05:23:03;4.72;;;2.30;;
28774;SDS011;15926;51.348;6.596;2023-07-13T05:25:29;7.90;;;1.50;;
28774;SDS011;15926;51.348;6.596;2023-07-13T05:27:55;9.68;;;2.00;;
28774;SDS011;15926;51.348;6.596;2023-07-13T05:30:21;5.35;;;1.77;;
28774;SDS011;15926;51.348;6.596;2023-07-13T05:32:47;4.85;;;2.10;;
28774;SDS011;15926;51.348;6.596;2023-07-13T05:35:13;5.40;;;1.67;;
28774;SDS011;15926;51.348;6.596;2023-07-13T05:37:39;5.35;;;1.70;;
28774;SDS011;15926;51.348;6.596;2023-07-13T05:40:06;7.18;;;1.73;;
28774;SDS011;15926;51.348;6.596;2023-07-13T05:42:32;7.28;;;2.45;;
28774;SDS011;15926;51.348;6.596;2023-07-13T05:44:58;6.72;;;2.13;;
28774;SDS011;15926;51.348;6.596;2023-07-13T05:47:24;8.25;;;2.30;;
28774;SDS011;15926;51.348;6.596;2023-07-13T05:49:50;5.25;;;2.00;;
28774;SDS011;15926;51.348;6.596;2023-07-13T05:52:16;9.27;;;2.50;;
28774;SDS011;15926;51.348;6.596;2023-07-13T05:54:42;5.45;;;1.90;;
28774;SDS011;15926;51.348;6.596;2023-07-13T05:57:08;7.78;;;2.53;;
28774;SDS011;15926;51.348;6.596;2023-07-13T05:59:35;7.63;;;1.88;;
28774;SDS011;15926;51.348;6.596;2023-07-13T06:02:02;6.82;;;2.30;;
28774;SDS011;15926;51.348;6.596;2023-07-13T06:04:28;8.27;;;2.38;;
28774;SDS011;15926;51.348;6.596;2023-07-13T06:06:54;11.55;;;2.15;;
28774;SDS011;15926;51.348;6.596;2023-07-13T06:09:20;6.18;;;2.33;;
28774;SDS011;15926;51.348;6.596;2023-07-13T06:11:46;6.28;;;2.50;;
28774;SDS011;15926;51.348;6.596;2023-07-13T06:14:12;9.20;;;2.60;;
28774;SDS011;15926;51.348;6.596;2023-07-13T06:16:39;8.10;;;3.08;;
28774;SDS011;15926;51.348;6.596;2023-07-13T06:19:06;8.00;;;2.42;;
28774;SDS011;15926;51.348;6.596;2023-07-13T06:21:32;5.68;;;2.50;;
28774;SDS011;15926;51.348;6.596;2023-07-13T06:23:58;12.25;;;2.95;;
28774;SDS011;15926;51.348;6.596;2023-07-13T06:26:24;10.82;;;3.20;;
28774;SDS011;15926;51.348;6.596;2023-07-13T06:28:50;7.45;;;2.53;;
28774;SDS011;15926;51.348;6.596;2023-07-13T06:31:16;6.40;;;2.33;;
28774;SDS011;15926;51.348;6.596;2023-07-13T06:33:42;11.00;;;3.67;;
28774;SDS011;15926;51.348;6.596;2023-07-13T06:36:09;6.25;;;3.10;;
28774;SDS011;15926;51.348;6.596;2023-07-13T06:38:35;8.57;;;2.97;;
28774;SDS011;15926;51.348;6.596;2023-07-13T06:41:01;7.63;;;2.65;;
28774;SDS011;15926;51.348;6.596;2023-07-13T06:43:28;5.90;;;3.28;;
28774;SDS011;15926;51.348;6.596;2023-07-13T06:45:55;11.20;;;3.42;;
28774;SDS011;15926;51.348;6.596;2023-07-13T06:48:21;11.10;;;2.78;;
28774;SDS011;15926;51.348;6.596;2023-07-13T06:50:48;15.32;;;3.50;;
28774;SDS011;15926;51.348;6.596;2023-07-13T06:53:15;7.35;;;2.65;;
28774;SDS011;15926;51.348;6.596;2023-07-13T06:55:43;9.27;;;2.92;;
28774;SDS011;15926;51.348;6.596;2023-07-13T06:58:09;7.38;;;3.35;;
28774;SDS011;15926;51.348;6.596;2023-07-13T07:00:35;10.45;;;3.10;;
28774;SDS011;15926;51.348;6.596;2023-07-13T07:03:01;12.57;;;3.38;;
28774;SDS011;15926;51.348;6.596;2023-07-13T07:05:27;7.63;;;2.97;;
28774;SDS011;15926;51.348;6.596;2023-07-13T07:07:54;5.85;;;3.00;;
28774;SDS011;15926;51.348;6.596;2023-07-13T07:10:20;5.68;;;3.33;;
28774;SDS011;15926;51.348;6.596;2023-07-13T07:12:46;8.45;;;2.88;;
28774;SDS011;15926;51.348;6.596;2023-07-13T07:15:14;9.93;;;3.15;;
28774;SDS011;15926;51.348;6.596;2023-07-13T07:17:40;12.82;;;3.40;;
28774;SDS011;15926;51.348;6.596;2023-07-13T07:20:06;4.88;;;2.72;;
28774;SDS011;15926;51.348;6.596;2023-07-13T07:22:32;7.38;;;3.10;;
28774;SDS011;15926;51.348;6.596;2023-07-13T07:24:58;11.02;;;3.42;;
28774;SDS011;15926;51.348;6.596;2023-07-13T07:27:24;8.75;;;3.00;;
28774;SDS011;15926;51.348;6.596;2023-07-13T07:29:51;11.60;;;3.15;;
28774;SDS011;15926;51.348;6.596;2023-07-13T07:32:17;12.48;;;3.30;;
28774;SDS011;15926;51.348;6.596;2023-07-13T07:34:43;8.40;;;3.20;;
28774;SDS011;15926;51.348;6.596;2023-07-13T07:37:09;11.00;;;2.95;;
28774;SDS011;15926;51.348;6.596;2023-07-13T07:39:36;6.90;;;2.72;;
28774;SDS011;15926;51.348;6.596;2023-07-13T07:42:02;6.10;;;2.90;;
28774;SDS011;15926;51.348;6.596;2023-07-13T07:44:28;7.72;;;2.95;;
28774;SDS011;15926;51.348;6.596;2023-07-13T07:46:54;7.55;;;2.58;;
28774;SDS011;15926;51.348;6.596;2023-07-13T07:49:20;6.82;;;2.80;;
28774;SDS011;15926;51.348;6.596;2023-07-13T07:51:46;9.02;;;2.95;;
28774;SDS011;15926;51.348;6.596;2023-07-13T07:54:12;4.78;;;2.70;;
28774;SDS011;15926;51.348;6.596;2023-07-13T07:56:39;6.20;;;2.72;;
28774;SDS011;15926;51.348;6.596;2023-07-13T07:59:05;7.93;;;2.90;;
28774;SDS011;15926;51.348;6.596;2023-07-13T08:01:31;7.30;;;2.63;;
28774;SDS011;15926;51.348;6.596;2023-07-13T08:03:57;9.50;;;2.63;;
28774;SDS011;15926;51.348;6.596;2023-07-13T08:06:23;6.68;;;2.42;;
28774;SDS011;15926;51.348;6.596;2023-07-13T08:08:50;8.77;;;2.67;;
28774;SDS011;15926;51.348;6.596;2023-07-13T08:11:16;6.95;;;2.50;;
28774;SDS011;15926;51.348;6.596;2023-07-13T08:13:43;10.15;;;2.35;;
28774;SDS011;15926;51.348;6.596;2023-07-13T08:16:09;11.52;;;2.63;;
28774;SDS011;15926;51.348;6.596;2023-07-13T08:18:36;7.32;;;2.28;;
28774;SDS011;15926;51.348;6.596;2023-07-13T08:21:05;10.27;;;2.80;;
28774;SDS011;15926;51.348;6.596;2023-07-13T08:23:32;9.60;;;2.40;;
28774;SDS011;15926;51.348;6.596;2023-07-13T08:25:58;7.57;;;2.65;;
28774;SDS011;15926;51.348;6.596;2023-07-13T08:28:26;6.53;;;2.40;;
28774;SDS011;15926;51.348;6.596;2023-07-13T08:30:52;6.80;;;2.22;;
28774;SDS011;15926;51.348;6.596;2023-07-13T08:33:19;5.28;;;2.33;;
28774;SDS011;15926;51.348;6.596;2023-07-13T08:35:48;6.00;;;2.15;;
28774;SDS011;15926;51.348;6.596;2023-07-13T08:40:40;3.80;;;2.30;;
28774;SDS011;15926;51.348;6.596;2023-07-13T08:43:08;5.63;;;2.38;;
28774;SDS011;15926;51.348;6.596;2023-07-13T08:45:45;6.47;;;2.50;;
28774;SDS011;15926;51.348;6.596;2023-07-13T08:48:18;9.05;;;3.08;;
28774;SDS011;15926;51.348;6.596;2023-07-13T08:53:16;7.32;;;2.72;;
28774;SDS011;15926;51.348;6.596;2023-07-13T08:55:42;6.45;;;2.95;;
28774;SDS011;15926;51.348;6.596;2023-07-13T08:58:10;7.50;;;2.72;;
28774;SDS011;15926;51.348;6.596;2023-07-13T09:00:48;7.38;;;2.20;;
28774;SDS011;15926;51.348;6.596;2023-07-13T09:03:22;4.10;;;2.17;;
28774;SDS011;15926;51.348;6.596;2023-07-13T09:05:53;10.50;;;3.13;;
28774;SDS011;15926;51.348;6.596;2023-07-13T09:10:49;8.52;;;2.95;;
28774;SDS011;15926;51.348;6.596;2023-07-13T09:13:37;8.48;;;2.90;;
28774;SDS011;15926;51.348;6.596;2023-07-13T09:16:05;6.32;;;2.60;;
28774;SDS011;15926;51.348;6.596;2023-07-13T09:18:38;6.53;;;2.20;;
28774;SDS011;15926;51.348;6.596;2023-07-13T09:21:10;4.13;;;2.10;;
28774;SDS011;15926;51.348;6.596;2023-07-13T09:23:37;6.15;;;2.30;;
28774;SDS011;15926;51.348;6.596;2023-07-13T09:26:11;6.95;;;2.10;;
28774;SDS011;15926;51.348;6.596;2023-07-13T09:28:39;8.90;;;2.90;;
28774;SDS011;15926;51.348;6.596;2023-07-13T09:31:07;7.65;;;2.50;;
28774;SDS011;15926;51.348;6.596;2023-07-13T09:33:37;8.65;;;2.38;;
28774;SDS011;15926;51.348;6.596;2023-07-13T09:36:17;5.85;;;2.17;;
28774;SDS011;15926;51.348;6.596;2023-07-13T09:38:44;6.35;;;2.17;;
28774;SDS011;15926;51.348;6.596;2023-07-13T09:41:28;7.00;;;2.70;;
28774;SDS011;15926;51.348;6.596;2023-07-13T09:44:16;8.95;;;2.17;;
28774;SDS011;15926;51.348;6.596;2023-07-13T09:46:44;6.65;;;2.25;;
28774;SDS011;15926;51.348;6.596;2023-07-13T09:49:10;7.97;;;2.35;;
28774;SDS011;15926;51.348;6.596;2023-07-13T09:51:37;3.97;;;3.05;;
28774;SDS011;15926;51.348;6.596;2023-07-13T09:54:04;7.72;;;2.47;;
28774;SDS011;15926;51.348;6.596;2023-07-13T09:56:30;4.75;;;1.88;;
28774;SDS011;15926;51.348;6.596;2023-07-13T09:58:58;7.50;;;2.53;;
28774;SDS011;15926;51.348;6.596;2023-07-13T10:01:31;5.45;;;1.85;;
28774;SDS011;15926;51.348;6.596;2023-07-13T10:03:58;8.30;;;2.03;;
28774;SDS011;15926;51.348;6.596;2023-07-13T10:06:25;4.38;;;1.88;;
28774;SDS011;15926;51.348;6.596;2023-07-13T10:08:51;5.82;;;2.45;;
28774;SDS011;15926;51.348;6.596;2023-07-13T10:11:21;4.40;;;2.10;;
28774;SDS011;15926;51.348;6.596;2023-07-13T10:13:52;4.25;;;2.03;;
28774;SDS011;15926;51.348;6.596;2023-07-13T10:16:20;7.18;;;2.00;;
28774;SDS011;15926;51.348;6.596;2023-07-13T10:18:55;3.95;;;2.03;;
28774;SDS011;15926;51.348;6.596;2023-07-13T10:21:22;6.72;;;1.95;;
28774;SDS011;15926;51.348;6.596;2023-07-13T10:23:53;6.90;;;2.17;;
28774;SDS011;15926;51.348;6.596;2023-07-13T10:26:25;5.10;;;2.10;;
28774;SDS011;15926;51.348;6.596;2023-07-13T10:28:52;6.97;;;2.28;;
28774;SDS011;15926;51.348;6.596;2023-07-13T10:31:20;3.97;;;1.67;;
28774;SDS011;15926;51.348;6.596;2023-07-13T10:33:46;7.45;;;2.67;;
28774;SDS011;15926;51.348;6.596;2023-07-13T10:38:39;6.80;;;1.95;;
28774;SDS011;15926;51.348;6.596;2023-07-13T10:41:06;6.88;;;1.80;;
28774;SDS011;15926;51.348;6.596;2023-07-13T10:43:44;5.57;;;2.13;;
28774;SDS011;15926;51.348;6.596;2023-07-13T10:46:13;6.35;;;1.52;;
28774;SDS011;15926;51.348;6.596;2023-07-13T10:48:40;4.20;;;2.33;;
28774;SDS011;15926;51.348;6.596;2023-07-13T10:51:08;4.90;;;2.33;;
28774;SDS011;15926;51.348;6.596;2023-07-13T10:53:36;6.30;;;2.00;;
28774;SDS011;15926;51.348;6.596;2023-07-13T10:56:03;5.10;;;2.00;;
28774;SDS011;15926;51.348;6.596;2023-07-13T10:58:37;3.85;;;1.40;;
28774;SDS011;15926;51.348;6.596;2023-07-13T11:03:37;3.50;;;1.35;;
28774;SDS011;15926;51.348;6.596;2023-07-13T11:06:15;4.55;;;1.75;;
28774;SDS011;15926;51.348;6.596;2023-07-13T11:11:47;4.45;;;1.80;;
28774;SDS011;15926;51.348;6.596;2023-07-13T11:16:58;2.67;;;1.45;;
28774;SDS011;15926;51.348;6.596;2023-07-13T11:19:26;3.92;;;1.38;;
28774;SDS011;15926;51.348;6.596;2023-07-13T11:24:49;5.50;;;1.70;;
28774;SDS011;15926;51.348;6.596;2023-07-13T11:32:46;4.45;;;1.38;;
28774;SDS011;15926;51.348;6.596;2023-07-13T11:37:41;5.05;;;1.63;;
28774;SDS011;15926;51.348;6.596;2023-07-13T11:40:12;3.42;;;1.27;;
28774;SDS011;15926;51.348;6.596;2023-07-13T11:42:38;2.58;;;1.45;;
28774;SDS011;15926;51.348;6.596;2023-07-13T11:45:12;2.50;;;1.20;;
28774;SDS011;15926;51.348;6.596;2023-07-13T11:47:44;4.78;;;1.80;;
28774;SDS011;15926;51.348;6.596;2023-07-13T11:50:21;3.42;;;1.63;;
28774;SDS011;15926;51.348;6.596;2023-07-13T11:52:48;2.95;;;1.50;;
28774;SDS011;15926;51.348;6.596;2023-07-13T11:55:16;3.35;;;1.48;;
28774;SDS011;15926;51.348;6.596;2023-07-13T11:57:50;3.43;;;1.13;;
28774;SDS011;15926;51.348;6.596;2023-07-13T12:00:17;4.38;;;1.30;;
28774;SDS011;15926;51.348;6.596;2023-07-13T12:02:45;2.50;;;1.17;;
28774;SDS011;15926;51.348;6.596;2023-07-13T12:05:12;3.25;;;1.20;;
28774;SDS011;15926;51.348;6.596;2023-07-13T12:07:39;6.45;;;1.10;;
28774;SDS011;15926;51.348;6.596;2023-07-13T12:12:37;7.03;;;1.25;;
28774;SDS011;15926;51.348;6.596;2023-07-13T12:15:06;4.28;;;1.35;;
28774;SDS011;15926;51.348;6.596;2023-07-13T12:17:33;1.75;;;1.05;;
28774;SDS011;15926;51.348;6.596;2023-07-13T12:20:00;4.88;;;1.38;;
28774;SDS011;15926;51.348;6.596;2023-07-13T12:22:26;3.17;;;1.20;;
28774;SDS011;15926;51.348;6.596;2023-07-13T12:24:52;2.33;;;1.33;;
28774;SDS011;15926;51.348;6.596;2023-07-13T12:27:20;3.40;;;1.42;;
28774;SDS011;15926;51.348;6.596;2023-07-13T12:30:01;1.48;;;0.90;;
28774;SDS011;15926;51.348;6.596;2023-07-13T12:32:27;4.38;;;1.60;;
28774;SDS011;15926;51.348;6.596;2023-07-13T12:35:03;3.78;;;1.08;;
28774;SDS011;15926;51.348;6.596;2023-07-13T12:37:33;3.45;;;1.20;;
28774;SDS011;15926;51.348;6.596;2023-07-13T12:40:00;6.75;;;1.23;;
28774;SDS011;15926;51.348;6.596;2023-07-13T12:42:27;2.75;;;1.73;;
28774;SDS011;15926;51.348;6.596;2023-07-13T12:44:58;2.28;;;1.17;;
28774;SDS011;15926;51.348;6.596;2023-07-13T12:47:25;5.93;;;1.85;;
28774;SDS011;15926;51.348;6.596;2023-07-13T12:49:57;3.10;;;1.35;;
28774;SDS011;15926;51.348;6.596;2023-07-13T12:52:33;2.83;;;1.10;;
28774;SDS011;15926;51.348;6.596;2023-07-13T12:55:04;4.20;;;1.30;;
28774;SDS011;15926;51.348;6.596;2023-07-13T12:57:31;2.30;;;0.98;;
28774;SDS011;15926;51.348;6.596;2023-07-13T12:59:57;1.73;;;1.02;;
28774;SDS011;15926;51.348;6.596;2023-07-13T13:02:30;2.38;;;1.00;;
28774;SDS011;15926;51.348;6.596;2023-07-13T13:04:56;2.13;;;1.35;;
28774;SDS011;15926;51.348;6.596;2023-07-13T13:07:23;1.98;;;1.05;;
28774;SDS011;15926;51.348;6.596;2023-07-13T13:09:49;3.88;;;1.05;;
28774;SDS011;15926;51.348;6.596;2023-07-13T13:12:16;3.78;;;1.13;;
28774;SDS011;15926;51.348;6.596;2023-07-13T13:14:43;3.92;;;1.10;;
28774;SDS011;15926;51.348;6.596;2023-07-13T13:20:01;3.42;;;1.33;;
28774;SDS011;15926;51.348;6.596;2023-07-13T13:22:27;3.72;;;1.05;;
28774;SDS011;15926;51.348;6.596;2023-07-13T13:24:53;2.13;;;1.20;;
28774;SDS011;15926;51.348;6.596;2023-07-13T13:27:20;1.90;;;1.05;;
28774;SDS011;15926;51.348;6.596;2023-07-13T13:29:48;1.65;;;1.00;;
28774;SDS011;15926;51.348;6.596;2023-07-13T13:34:42;1.45;;;1.00;;
28774;SDS011;15926;51.348;6.596;2023-07-13T13:37:16;3.58;;;1.10;;
28774;SDS011;15926;51.348;6.596;2023-07-13T13:39:43;5.20;;;1.38;;
28774;SDS011;15926;51.348;6.596;2023-07-13T13:42:09;1.33;;;0.90;;
28774;SDS011;15926;51.348;6.596;2023-07-13T13:44:35;1.70;;;1.00;;
28774;SDS011;15926;51.348;6.596;2023-07-13T13:47:02;2.13;;;0.95;;
28774;SDS011;15926;51.348;6.596;2023-07-13T13:49:29;4.38;;;1.10;;
28774;SDS011;15926;51.348;6.596;2023-07-13T13:51:58;2.25;;;1.00;;
28774;SDS011;15926;51.348;6.596;2023-07-13T13:54:24;2.33;;;1.20;;
28774;SDS011;15926;51.348;6.596;2023-07-13T13:56:51;3.20;;;1.15;;
28774;SDS011;15926;51.348;6.596;2023-07-13T13:59:18;7.03;;;1.92;;
28774;SDS011;15926;51.348;6.596;2023-07-13T14:01:44;2.58;;;1.30;;
28774;SDS011;15926;51.348;6.596;2023-07-13T14:04:14;1.95;;;0.90;;
28774;SDS011;15926;51.348;6.596;2023-07-13T14:06:40;4.30;;;1.20;;
28774;SDS011;15926;51.348;6.596;2023-07-13T14:09:09;3.10;;;1.25;;
28774;SDS011;15926;51.348;6.596;2023-07-13T14:14:01;3.60;;;1.00;;
28774;SDS011;15926;51.348;6.596;2023-07-13T14:16:29;3.42;;;1.00;;
28774;SDS011;15926;51.348;6.596;2023-07-13T14:18:56;2.45;;;1.13;;
28774;SDS011;15926;51.348;6.596;2023-07-13T14:21:25;2.13;;;1.00;;
28774;SDS011;15926;51.348;6.596;2023-07-13T14:23:51;3.05;;;1.10;;
28774;SDS011;15926;51.348;6.596;2023-07-13T14:26:21;3.33;;;1.10;;
28774;SDS011;15926;51.348;6.596;2023-07-13T14:28:50;2.88;;;0.80;;
28774;SDS011;15926;51.348;6.596;2023-07-13T14:31:16;2.90;;;1.35;;
28774;SDS011;15926;51.348;6.596;2023-07-13T14:33:43;3.53;;;1.38;;
28774;SDS011;15926;51.348;6.596;2023-07-13T14:36:27;4.13;;;1.05;;
28774;SDS011;15926;51.348;6.596;2023-07-13T14:38:54;3.08;;;0.98;;
28774;SDS011;15926;51.348;6.596;2023-07-13T14:41:20;1.85;;;1.08;;
28774;SDS011;15926;51.348;6.596;2023-07-13T14:43:46;4.90;;;1.20;;
28774;SDS011;15926;51.348;6.596;2023-07-13T14:46:32;4.65;;;1.13;;
28774;SDS011;15926;51.348;6.596;2023-07-13T14:49:00;2.40;;;1.00;;
28774;SDS011;15926;51.348;6.596;2023-07-13T14:51:27;7.78;;;1.75;;
28774;SDS011;15926;51.348;6.596;2023-07-13T14:53:53;4.40;;;1.20;;
28774;SDS011;15926;51.348;6.596;2023-07-13T14:56:19;4.50;;;1.10;;
28774;SDS011;15926;51.348;6.596;2023-07-13T14:58:45;2.90;;;1.25;;
28774;SDS011;15926;51.348;6.596;2023-07-13T15:01:12;2.40;;;1.20;;
28774;SDS011;15926;51.348;6.596;2023-07-13T15:03:41;3.70;;;1.15;;
28774;SDS011;15926;51.348;6.596;2023-07-13T15:06:10;5.03;;;1.20;;
28774;SDS011;15926;51.348;6.596;2023-07-13T15:08:37;3.63;;;1.23;;
28774;SDS011;15926;51.348;6.596;2023-07-13T15:11:03;3.10;;;1.10;;
28774;SDS011;15926;51.348;6.596;2023-07-13T15:13:30;1.65;;;1.30;;
28774;SDS011;15926;51.348;6.596;2023-07-13T15:15:56;1.85;;;1.00;;
28774;SDS011;15926;51.348;6.596;2023-07-13T15:18:23;1.42;;;1.10;;
28774;SDS011;15926;51.348;6.596;2023-07-13T15:20:50;1.13;;;0.82;;
28774;SDS011;15926;51.348;6.596;2023-07-13T15:23:17;2.28;;;1.10;;
28774;SDS011;15926;51.348;6.596;2023-07-13T15:25:44;1.83;;;1.02;;
28774;SDS011;15926;51.348;6.596;2023-07-13T15:28:11;2.90;;;1.30;;
28774;SDS011;15926;51.348;6.596;2023-07-13T15:30:41;1.55;;;1.10;;
28774;SDS011;15926;51.348;6.596;2023-07-13T15:33:27;3.30;;;1.10;;
28774;SDS011;15926;51.348;6.596;2023-07-13T15:35:53;3.10;;;1.17;;
28774;SDS011;15926;51.348;6.596;2023-07-13T15:38:21;2.95;;;1.48;;
28774;SDS011;15926;51.348;6.596;2023-07-13T15:40:48;4.18;;;1.48;;
28774;SDS011;15926;51.348;6.596;2023-07-13T15:43:15;3.92;;;1.30;;
28774;SDS011;15926;51.348;6.596;2023-07-13T15:45:42;1.83;;;1.33;;
28774;SDS011;15926;51.348;6.596;2023-07-13T15:48:19;2.80;;;1.40;;
28774;SDS011;15926;51.348;6.596;2023-07-13T15:50:53;2.78;;;1.10;;
28774;SDS011;15926;51.348;6.596;2023-07-13T15:53:23;5.15;;;1.45;;
28774;SDS011;15926;51.348;6.596;2023-07-13T15:55:49;4.47;;;1.50;;
28774;SDS011;15926;51.348;6.596;2023-07-13T15:58:17;1.95;;;1.20;;
28774;SDS011;15926;51.348;6.596;2023-07-13T16:00:43;4.25;;;1.35;;
28774;SDS011;15926;51.348;6.596;2023-07-13T16:03:10;1.98;;;1.13;;
28774;SDS011;15926;51.348;6.596;2023-07-13T16:05:36;4.80;;;1.45;;
28774;SDS011;15926;51.348;6.596;2023-07-13T16:08:03;2.50;;;1.42;;
28774;SDS011;15926;51.348;6.596;2023-07-13T16:10:31;3.78;;;1.48;;
28774;SDS011;15926;51.348;6.596;2023-07-13T16:12:57;3.63;;;1.30;;
28774;SDS011;15926;51.348;6.596;2023-07-13T16:15:23;4.15;;;1.70;;
28774;SDS011;15926;51.348;6.596;2023-07-13T16:17:49;3.58;;;1.35;;
28774;SDS011;15926;51.348;6.596;2023-07-13T16:20:16;2.55;;;1.60;;
28774;SDS011;15926;51.348;6.596;2023-07-13T16:22:46;1.58;;;1.08;;
28774;SDS011;15926;51.348;6.596;2023-07-13T16:25:17;5.40;;;1.52;;
28774;SDS011;15926;51.348;6.596;2023-07-13T16:27:44;2.78;;;1.13;;
28774;SDS011;15926;51.348;6.596;2023-07-13T16:30:18;3.70;;;1.35;;
28774;SDS011;15926;51.348;6.596;2023-07-13T16:32:46;2.20;;;1.23;;
28774;SDS011;15926;51.348;6.596;2023-07-13T16:35:13;1.83;;;1.10;;
28774;SDS011;15926;51.348;6.596;2023-07-13T16:37:40;3.25;;;1.20;;
28774;SDS011;15926;51.348;6.596;2023-07-13T16:40:17;2.58;;;1.15;;
28774;SDS011;15926;51.348;6.596;2023-07-13T16:42:46;2.80;;;1.30;;
28774;SDS011;15926;51.348;6.596;2023-07-13T16:45:12;2.60;;;1.17;;
28774;SDS011;15926;51.348;6.596;2023-07-13T16:47:40;1.73;;;0.90;;
28774;SDS011;15926;51.348;6.596;2023-07-13T16:50:30;1.95;;;0.77;;
28774;SDS011;15926;51.348;6.596;2023-07-13T16:52:54;1.95;;;1.00;;
28774;SDS011;15926;51.348;6.596;2023-07-13T16:55:21;1.92;;;0.95;;
28774;SDS011;15926;51.348;6.596;2023-07-13T16:57:57;3.00;;;0.80;;
28774;SDS011;15926;51.348;6.596;2023-07-13T17:00:26;2.88;;;1.20;;
28774;SDS011;15926;51.348;6.596;2023-07-13T17:02:56;1.23;;;1.02;;
28774;SDS011;15926;51.348;6.596;2023-07-13T17:10:39;2.20;;;1.13;;
28774;SDS011;15926;51.348;6.596;2023-07-13T17:13:09;1.85;;;0.98;;
28774;SDS011;15926;51.348;6.596;2023-07-13T17:15:35;1.42;;;0.80;;
28774;SDS011;15926;51.348;6.596;2023-07-13T17:18:03;2.85;;;1.00;;
28774;SDS011;15926;51.348;6.596;2023-07-13T17:20:30;2.63;;;1.15;;
28774;SDS011;15926;51.348;6.596;2023-07-13T17:23:02;1.10;;;0.98;;
28774;SDS011;15926;51.348;6.596;2023-07-13T17:25:28;1.83;;;1.08;;
28774;SDS011;15926;51.348;6.596;2023-07-13T17:27:55;2.05;;;0.80;;
28774;SDS011;15926;51.348;6.596;2023-07-13T17:30:21;0.77;;;0.77;;
28774;SDS011;15926;51.348;6.596;2023-07-13T17:32:49;1.67;;;0.90;;
28774;SDS011;15926;51.348;6.596;2023-07-13T17:35:23;3.47;;;1.17;;
28774;SDS011;15926;51.348;6.596;2023-07-13T17:37:51;2.00;;;0.90;;
28774;SDS011;15926;51.348;6.596;2023-07-13T17:40:17;2.28;;;0.90;;
28774;SDS011;15926;51.348;6.596;2023-07-13T17:42:44;2.28;;;0.98;;
28774;SDS011;15926;51.348;6.596;2023-07-13T17:45:11;1.48;;;1.17;;
28774;SDS011;15926;51.348;6.596;2023-07-13T17:47:42;1.73;;;1.20;;
28774;SDS011;15926;51.348;6.596;2023-07-13T17:50:14;3.28;;;1.10;;
28774;SDS011;15926;51.348;6.596;2023-07-13T17:52:41;2.63;;;1.13;;
28774;SDS011;15926;51.348;6.596;2023-07-13T17:55:14;2.33;;;1.08;;
28774;SDS011;15926;51.348;6.596;2023-07-13T17:57:40;2.22;;;1.20;;
28774;SDS011;15926;51.348;6.596;2023-07-13T18:00:07;2.45;;;1.08;;
28774;SDS011;15926;51.348;6.596;2023-07-13T18:02:52;4.05;;;1.33;;
28774;SDS011;15926;51.348;6.596;2023-07-13T18:05:18;2.45;;;1.40;;
28774;SDS011;15926;51.348;6.596;2023-07-13T18:07:44;2.22;;;1.60;;
28774;SDS011;15926;51.348;6.596;2023-07-13T18:10:14;5.55;;;2.00;;
28774;SDS011;15926;51.348;6.596;2023-07-13T18:12:41;3.22;;;1.70;;
28774;SDS011;15926;51.348;6.596;2023-07-13T18:15:09;3.78;;;1.88;;
28774;SDS011;15926;51.348;6.596;2023-07-13T18:17:35;3.22;;;1.77;;
28774;SDS011;15926;51.348;6.596;2023-07-13T18:20:02;5.97;;;1.98;;
28774;SDS011;15926;51.348;6.596;2023-07-13T18:22:37;10.65;;;2.38;;
28774;SDS011;15926;51.348;6.596;2023-07-13T18:25:13;13.75;;;3.45;;
28774;SDS011;15926;51.348;6.596;2023-07-13T18:27:40;14.90;;;3.33;;
28774;SDS011;15926;51.348;6.596;2023-07-13T18:30:07;5.03;;;1.75;;
28774;SDS011;15926;51.348;6.596;2023-07-13T18:32:34;4.38;;;1.30;;
28774;SDS011;15926;51.348;6.596;2023-07-13T18:35:02;3.88;;;1.38;;
28774;SDS011;15926;51.348;6.596;2023-07-13T18:37:28;2.10;;;1.40;;
28774;SDS011;15926;51.348;6.596;2023-07-13T18:39:55;4.18;;;1.60;;
28774;SDS011;15926;51.348;6.596;2023-07-13T18:42:21;4.65;;;2.00;;
28774;SDS011;15926;51.348;6.596;2023-07-13T18:44:49;2.13;;;1.73;;
28774;SDS011;15926;51.348;6.596;2023-07-13T18:47:20;2.80;;;1.52;;
28774;SDS011;15926;51.348;6.596;2023-07-13T18:49:47;5.05;;;2.03;;
28774;SDS011;15926;51.348;6.596;2023-07-13T18:52:20;1.98;;;1.50;;
28774;SDS011;15926;51.348;6.596;2023-07-13T18:54:46;2.17;;;1.52;;
28774;SDS011;15926;51.348;6.596;2023-07-13T18:57:13;3.63;;;1.63;;
28774;SDS011;15926;51.348;6.596;2023-07-13T18:59:39;3.22;;;1.63;;
28774;SDS011;15926;51.348;6.596;2023-07-13T19:02:14;3.95;;;1.60;;
28774;SDS011;15926;51.348;6.596;2023-07-13T19:04:41;4.38;;;2.55;;
28774;SDS011;15926;51.348;6.596;2023-07-13T19:07:10;4.95;;;2.10;;
28774;SDS011;15926;51.348;6.596;2023-07-13T19:09:37;6.28;;;2.33;;
28774;SDS011;15926;51.348;6.596;2023-07-13T19:12:12;3.83;;;2.10;;
28774;SDS011;15926;51.348;6.596;2023-07-13T19:14:40;6.25;;;2.40;;
28774;SDS011;15926;51.348;6.596;2023-07-13T19:17:08;7.10;;;2.47;;
28774;SDS011;15926;51.348;6.596;2023-07-13T19:19:35;8.25;;;3.45;;
28774;SDS011;15926;51.348;6.596;2023-07-13T19:22:01;5.65;;;2.22;;
28774;SDS011;15926;51.348;6.596;2023-07-13T19:24:28;4.10;;;2.20;;
28774;SDS011;15926;51.348;6.596;2023-07-13T19:26:54;5.13;;;2.35;;
28774;SDS011;15926;51.348;6.596;2023-07-13T19:29:23;6.88;;;2.65;;
28774;SDS011;15926;51.348;6.596;2023-07-13T19:31:50;5.82;;;2.80;;
28774;SDS011;15926;51.348;6.596;2023-07-13T19:34:17;8.43;;;2.92;;
28774;SDS011;15926;51.348;6.596;2023-07-13T19:36:43;7.00;;;2.80;;
28774;SDS011;15926;51.348;6.596;2023-07-13T19:39:22;7.93;;;3.65;;
28774;SDS011;15926;51.348;6.596;2023-07-13T19:44:14;8.02;;;3.25;;